createdAt,value
2023-04-28T00:00:42.684Z,5.23
2023-04-28T00:03:19.920Z,5.22
2023-04-28T00:05:49.688Z,5.23
2023-04-28T00:08:18.130Z,5.25
2023-04-28T00:10:46.511Z,5.27
2023-04-28T00:13:14.840Z,5.29
2023-04-28T00:15:43.222Z,5.31
2023-04-28T00:18:11.606Z,5.33
2023-04-28T00:20:39.969Z,5.34
2023-04-28T00:23:08.335Z,5.36
2023-04-28T00:25:36.702Z,5.36
2023-04-28T00:28:05.109Z,5.36
2023-04-28T00:30:33.448Z,5.36
2023-04-28T00:33:01.843Z,5.35
2023-04-28T00:35:30.410Z,5.34
2023-04-28T00:37:58.835Z,5.35
2023-04-28T00:40:39.804Z,5.35
2023-04-28T00:43:08.203Z,5.37
2023-04-28T00:45:36.698Z,5.38
2023-04-28T00:48:05.607Z,5.39
2023-04-28T00:50:33.955Z,5.40
2023-04-28T00:53:02.902Z,5.41
2023-04-28T00:55:35.146Z,5.43
2023-04-28T00:58:04.837Z,5.46
2023-04-28T01:00:34.233Z,5.47
2023-04-28T01:03:03.119Z,5.51
2023-04-28T01:05:32.046Z,5.52
2023-04-28T01:08:00.682Z,5.53
2023-04-28T01:10:29.005Z,5.54
2023-04-28T01:12:57.436Z,5.55
2023-04-28T01:15:26.886Z,5.56
2023-04-28T01:17:55.651Z,5.57
2023-04-28T01:20:24.265Z,5.57
2023-04-28T01:22:52.644Z,5.57
2023-04-28T01:25:21.194Z,5.56
2023-04-28T01:27:49.516Z,5.56
2023-04-28T01:30:17.854Z,5.57
2023-04-28T01:32:46.237Z,5.58
2023-04-28T01:35:14.674Z,5.58
2023-04-28T01:37:43.042Z,5.58
2023-04-28T01:40:12.228Z,5.58
2023-04-28T01:42:40.666Z,5.59
2023-04-28T01:45:10.097Z,5.61
2023-04-28T01:47:38.967Z,5.63
2023-04-28T01:50:07.888Z,5.63
2023-04-28T01:52:36.321Z,5.64
2023-04-28T01:55:05.682Z,5.65
2023-04-28T01:57:35.794Z,5.65
2023-04-28T02:00:05.152Z,5.66
2023-04-28T02:02:33.724Z,5.64
2023-04-28T02:05:02.332Z,5.60
2023-04-28T02:07:30.676Z,5.58
2023-04-28T02:09:58.964Z,5.56
2023-04-28T02:12:27.347Z,5.55
2023-04-28T02:14:55.676Z,5.53
2023-04-28T02:17:24.101Z,5.53
2023-04-28T02:19:58.590Z,5.52
2023-04-28T02:22:26.919Z,5.50
2023-04-28T02:24:55.386Z,5.50
2023-04-28T02:27:23.719Z,5.50
2023-04-28T02:29:52.773Z,5.50
2023-04-28T02:32:21.183Z,5.49
2023-04-28T02:34:54.751Z,5.48
2023-04-28T02:37:23.465Z,5.47
2023-04-28T02:39:51.744Z,5.47
2023-04-28T02:42:20.070Z,5.46
2023-04-28T02:44:48.408Z,5.44
2023-04-28T02:47:17.042Z,5.43
2023-04-28T02:49:45.871Z,5.42
2023-04-28T02:52:14.374Z,5.42
2023-04-28T02:54:42.885Z,5.40
2023-04-28T02:57:11.241Z,5.38
2023-04-28T02:59:39.788Z,5.37
2023-04-28T03:02:09.377Z,5.36
2023-04-28T03:04:37.754Z,5.35
2023-04-28T03:07:06.093Z,5.35
2023-04-28T03:09:34.937Z,5.35
2023-04-28T03:12:03.544Z,5.33
2023-04-28T03:14:31.923Z,5.32
2023-04-28T03:17:00.385Z,5.30
2023-04-28T03:19:29.038Z,5.28
2023-04-28T03:21:57.342Z,5.27
2023-04-28T03:24:25.808Z,5.25
2023-04-28T03:26:54.132Z,5.19
2023-04-28T03:29:24.449Z,5.15
2023-04-28T03:31:53.088Z,5.10
2023-04-28T03:34:21.391Z,5.01
2023-04-28T03:36:49.718Z,4.93
2023-04-28T03:39:18.479Z,4.84
2023-04-28T03:41:46.846Z,4.77
2023-04-28T03:44:15.332Z,4.73
2023-04-28T03:46:43.823Z,4.72
2023-04-28T03:49:12.161Z,4.72
2023-04-28T03:51:41.049Z,4.72
2023-04-28T03:54:09.378Z,4.74
2023-04-28T03:56:37.876Z,4.73
2023-04-28T03:59:06.232Z,4.75
2023-04-28T04:01:34.564Z,4.77
2023-04-28T04:04:03.406Z,4.80
2023-04-28T04:06:32.496Z,4.85
2023-04-28T04:09:00.852Z,4.89
2023-04-28T04:11:29.146Z,4.94
2023-04-28T04:13:57.487Z,4.99
2023-04-28T04:16:26.160Z,5.05
2023-04-28T04:18:54.538Z,5.12
2023-04-28T04:21:22.884Z,5.18
2023-04-28T04:23:51.362Z,5.24
2023-04-28T04:26:19.706Z,5.30
2023-04-28T04:28:48.066Z,5.37
2023-04-28T04:31:16.602Z,5.41
2023-04-28T04:33:45.538Z,5.46
2023-04-28T04:36:13.947Z,5.52
2023-04-28T04:38:42.357Z,5.58
2023-04-28T04:41:10.682Z,5.66
2023-04-28T04:43:39.188Z,5.73
2023-04-28T04:46:07.810Z,5.80
2023-04-28T04:48:36.295Z,5.88
2023-04-28T04:51:04.805Z,5.95
2023-04-28T04:53:33.202Z,6.02
2023-04-28T04:56:01.688Z,6.10
2023-04-28T04:58:30.114Z,6.16
2023-04-28T05:00:58.687Z,6.21
2023-04-28T05:03:27.291Z,6.28
2023-04-28T05:05:56.618Z,6.37
2023-04-28T05:08:28.037Z,6.45
2023-04-28T05:10:58.710Z,6.54
2023-04-28T05:13:27.809Z,6.63
2023-04-28T05:15:57.535Z,6.71
2023-04-28T05:18:59.817Z,6.83
2023-04-28T05:21:33.203Z,6.93
2023-04-28T05:24:07.521Z,7.02
2023-04-28T05:26:42.251Z,7.11
2023-04-28T05:29:23.348Z,7.21
2023-04-28T05:32:18.166Z,7.33
2023-04-28T05:35:44.432Z,7.45
2023-04-28T05:38:27.005Z,7.56
2023-04-28T05:41:03.561Z,7.70
2023-04-28T05:43:36.361Z,7.85
2023-04-28T05:46:28.455Z,7.96
2023-04-28T05:49:41.583Z,8.10
2023-04-28T05:52:40.092Z,8.27
2023-04-28T05:55:43.551Z,8.37
2023-04-28T05:58:12.102Z,8.47
2023-04-28T06:00:40.837Z,8.52
2023-04-28T06:03:15.130Z,8.60
2023-04-28T06:05:44.042Z,8.70
2023-04-28T06:08:37.270Z,8.80
2023-04-28T06:11:06.728Z,8.92
2023-04-28T06:13:35.099Z,9.02
2023-04-28T06:16:04.118Z,9.13
2023-04-28T06:18:32.982Z,9.26
2023-04-28T06:21:01.693Z,9.37
2023-04-28T06:23:30.081Z,9.48
2023-04-28T06:25:58.487Z,9.59
2023-04-28T06:28:26.892Z,9.69
2023-04-28T06:30:55.695Z,9.78
2023-04-28T06:33:24.071Z,9.86
2023-04-28T06:35:53.551Z,10.00
2023-04-28T06:38:21.918Z,10.14
2023-04-28T06:40:50.484Z,10.29
2023-04-28T06:43:18.798Z,10.43
2023-04-28T06:45:48.426Z,10.55
2023-04-28T06:48:17.312Z,10.68
2023-04-28T06:50:46.398Z,10.83
2023-04-28T06:53:14.769Z,10.98
2023-04-28T06:55:43.486Z,11.10
2023-04-28T06:58:11.893Z,11.20
2023-04-28T07:00:40.308Z,11.28
2023-04-28T07:03:09.336Z,11.37
2023-04-28T07:05:38.856Z,11.45
2023-04-28T07:08:07.232Z,11.52
2023-04-28T07:10:35.682Z,11.59
2023-04-28T07:13:04.124Z,11.64
2023-04-28T07:15:32.640Z,11.70
2023-04-28T07:18:01.773Z,11.79
2023-04-28T07:20:30.144Z,11.90
2023-04-28T07:22:58.701Z,12.01
2023-04-28T07:25:27.130Z,12.14
2023-04-28T07:27:55.613Z,12.27
2023-04-28T07:30:29.409Z,12.38
2023-04-28T07:32:59.536Z,12.49
2023-04-28T07:35:28.540Z,12.55
2023-04-28T07:37:57.962Z,12.65
2023-04-28T07:40:26.474Z,12.76
2023-04-28T07:42:54.815Z,12.88
2023-04-28T07:45:26.344Z,12.95
2023-04-28T07:47:54.738Z,13.01
2023-04-28T07:50:38.376Z,13.09
2023-04-28T07:53:06.770Z,13.19
2023-04-28T07:55:38.295Z,13.27
2023-04-28T07:58:09.262Z,13.36
2023-04-28T08:00:40.890Z,13.44
2023-04-28T08:03:09.907Z,13.52
2023-04-28T08:05:46.554Z,13.57
2023-04-28T08:08:15.109Z,13.61
2023-04-28T08:10:44.005Z,13.71
2023-04-28T08:13:16.674Z,13.76
2023-04-28T08:15:49.601Z,13.79
2023-04-28T08:18:18.172Z,13.81
2023-04-28T08:20:46.669Z,13.85
2023-04-28T08:23:15.038Z,13.91
2023-04-28T08:25:43.522Z,14.00
2023-04-28T08:28:11.911Z,14.07
2023-04-28T08:30:40.497Z,14.15
2023-04-28T08:33:08.887Z,14.21
2023-04-28T08:35:37.374Z,14.30
2023-04-28T08:38:08.343Z,14.39
2023-04-28T08:40:42.913Z,14.48
2023-04-28T08:43:14.209Z,14.61
2023-04-28T08:45:52.249Z,14.76
2023-04-28T08:48:23.046Z,14.90
2023-04-28T08:50:54.570Z,15.06
2023-04-28T08:53:27.579Z,15.19
2023-04-28T08:55:58.182Z,15.33
2023-04-28T08:58:28.451Z,15.47
2023-04-28T09:00:56.961Z,15.66
2023-04-28T09:03:27.012Z,15.81
2023-04-28T09:05:55.416Z,15.92
2023-04-28T09:08:23.792Z,16.06
2023-04-28T09:11:15.692Z,16.23
2023-04-28T09:13:44.396Z,16.40
2023-04-28T09:16:12.884Z,16.59
2023-04-28T09:18:56.992Z,16.79
2023-04-28T09:21:26.930Z,16.98
2023-04-28T09:23:55.358Z,17.14
2023-04-28T09:26:25.163Z,17.26
2023-04-28T09:29:12.929Z,17.40
2023-04-28T09:31:42.866Z,17.60
2023-04-28T09:34:14.195Z,17.81
2023-04-28T09:36:43.205Z,17.94
2023-04-28T09:39:12.344Z,18.07
2023-04-28T09:41:44.210Z,18.25
2023-04-28T09:44:32.925Z,18.45
2023-04-28T09:47:19.849Z,18.69
2023-04-28T09:50:00.064Z,19.00
2023-04-28T09:52:28.570Z,19.24
2023-04-28T09:54:58.400Z,19.47
2023-04-28T09:57:33.796Z,19.67
2023-04-28T10:00:06.857Z,19.87
2023-04-28T10:10:42.565Z,20.58
2023-04-28T10:13:12.747Z,20.83
2023-04-28T10:15:42.608Z,21.03
2023-04-28T10:18:14.960Z,21.26
2023-04-28T10:20:48.642Z,21.55
2023-04-28T10:23:48.466Z,21.69
2023-04-28T10:26:21.990Z,21.93
2023-04-28T10:28:52.564Z,22.11
2023-04-28T10:31:26.370Z,22.30
2023-04-28T10:34:17.099Z,22.45
2023-04-28T10:36:51.093Z,22.66
2023-04-28T10:39:25.147Z,22.89
2023-04-28T10:41:59.522Z,23.17
2023-04-28T10:44:28.998Z,23.41
2023-04-28T10:47:04.161Z,23.66
2023-04-28T10:50:06.241Z,23.88
2023-04-28T10:52:59.045Z,24.06
2023-04-28T10:55:37.653Z,24.35
2023-04-28T10:58:42.851Z,24.51
2023-04-28T11:01:27.139Z,24.70
2023-04-28T11:04:17.079Z,24.85
2023-04-28T11:06:47.878Z,25.12
2023-04-28T11:09:17.537Z,25.45
2023-04-28T11:12:01.477Z,25.79
2023-04-28T11:14:32.970Z,26.16
2023-04-28T11:17:11.410Z,26.40
2023-04-28T11:19:45.985Z,26.54
2023-04-28T11:22:18.767Z,26.77
2023-04-28T11:25:02.004Z,26.94
2023-04-28T11:27:33.499Z,27.03
2023-04-28T11:30:02.271Z,27.16
2023-04-28T11:32:35.721Z,27.30
2023-04-28T11:35:05.405Z,27.55
2023-04-28T11:37:33.768Z,27.81
2023-04-28T11:40:12.241Z,28.02
2023-04-28T11:42:49.914Z,28.14
2023-04-28T11:45:18.515Z,28.17
2023-04-28T11:47:48.218Z,28.24
2023-04-28T11:50:17.713Z,28.48
2023-04-28T11:52:56.503Z,28.81
2023-04-28T11:55:24.904Z,29.08
2023-04-28T11:58:25.307Z,29.17
2023-04-28T12:01:11.691Z,29.19
2023-04-28T12:03:47.763Z,29.43
2023-04-28T12:06:32.709Z,29.60
2023-04-28T12:09:25.481Z,29.84
2023-04-28T12:12:03.334Z,29.87
2023-04-28T12:15:35.499Z,29.85
2023-04-28T12:18:19.489Z,29.87
2023-04-28T12:20:49.003Z,29.93
2023-04-28T12:23:32.322Z,30.03
2023-04-28T12:26:02.470Z,30.21
2023-04-28T12:28:41.963Z,30.39
2023-04-28T12:31:12.074Z,30.55
2023-04-28T12:33:41.299Z,30.70
2023-04-28T12:36:09.633Z,30.84
2023-04-28T12:38:48.021Z,30.89
2023-04-28T12:41:16.601Z,30.89
2023-04-28T12:43:44.951Z,30.94
2023-04-28T12:46:15.677Z,31.14
2023-04-28T12:48:44.121Z,31.33
2023-04-28T12:51:12.425Z,31.51
2023-04-28T12:53:40.849Z,31.77
2023-04-28T12:56:09.151Z,32.11
2023-04-28T12:58:38.016Z,32.20
2023-04-28T13:01:06.892Z,32.32
2023-04-28T13:03:36.420Z,32.48
2023-04-28T13:06:06.020Z,32.64
2023-04-28T13:08:34.369Z,32.77
2023-04-28T13:11:12.815Z,32.90
2023-04-28T13:13:51.304Z,32.91
2023-04-28T13:16:21.251Z,32.77
2023-04-28T13:18:50.719Z,32.63
2023-04-28T13:21:19.248Z,32.54
2023-04-28T13:23:47.620Z,32.65
2023-04-28T13:26:15.928Z,32.69
2023-04-28T13:28:46.865Z,32.71
2023-04-28T13:31:17.314Z,32.65
2023-04-28T13:33:47.132Z,32.41
2023-04-28T13:36:16.984Z,32.03
2023-04-28T13:38:48.866Z,31.84
2023-04-28T13:41:17.679Z,31.85
2023-04-28T13:43:45.985Z,31.99
2023-04-28T13:46:16.612Z,32.23
2023-04-28T13:51:15.115Z,32.95
2023-04-28T13:53:43.459Z,33.36
2023-04-28T13:56:12.365Z,33.43
2023-04-28T13:58:40.786Z,33.32
2023-04-28T14:01:09.181Z,33.05
2023-04-28T14:03:37.766Z,32.80
2023-04-28T14:06:08.198Z,32.52
2023-04-28T14:08:36.784Z,32.14
2023-04-28T14:11:05.140Z,31.89
2023-04-28T14:13:33.580Z,31.61
2023-04-28T14:16:02.307Z,31.24
2023-04-28T14:18:30.960Z,30.79
2023-04-28T14:21:00.230Z,30.37
2023-04-28T14:23:28.849Z,30.14
2023-04-28T14:25:58.143Z,29.99
2023-04-28T14:28:26.565Z,29.84
2023-04-28T14:30:55.115Z,29.78
2023-04-28T14:33:24.324Z,29.61
2023-04-28T14:35:52.703Z,29.47
2023-04-28T14:38:21.051Z,29.36
2023-04-28T14:40:49.391Z,29.50
2023-04-28T14:43:17.772Z,29.56
2023-04-28T14:45:49.161Z,29.65
2023-04-28T14:48:17.612Z,29.76
2023-04-28T14:50:46.298Z,29.68
2023-04-28T14:53:14.885Z,29.52
2023-04-28T14:55:44.515Z,29.79
2023-04-28T14:58:13.536Z,30.41
2023-04-28T15:00:42.216Z,30.88
2023-04-28T15:03:10.702Z,31.36
2023-04-28T15:05:39.529Z,31.45
2023-04-28T15:08:33.383Z,31.62
2023-04-28T15:11:01.796Z,32.77
2023-04-28T15:13:30.336Z,33.79
2023-04-28T15:15:58.753Z,34.34
2023-04-28T15:18:35.963Z,34.68
2023-04-28T15:21:05.158Z,34.85
2023-04-28T15:23:33.695Z,34.95
2023-04-28T15:26:02.568Z,35.10
2023-04-28T15:28:31.248Z,35.24
2023-04-28T15:30:59.630Z,35.35
2023-04-28T15:33:28.818Z,35.37
2023-04-28T15:35:57.223Z,35.29
2023-04-28T15:38:26.400Z,34.98
2023-04-28T15:40:57.160Z,34.87
2023-04-28T15:43:27.246Z,35.07
2023-04-28T15:45:57.965Z,35.01
2023-04-28T15:48:27.327Z,34.82
2023-04-28T15:50:56.239Z,34.76
2023-04-28T15:53:28.363Z,35.19
2023-04-28T15:55:57.743Z,35.96
2023-04-28T15:58:26.110Z,37.02
2023-04-28T16:00:54.626Z,38.11
2023-04-28T16:03:23.530Z,39.14
2023-04-28T16:05:58.052Z,39.89
2023-04-28T16:08:33.421Z,38.97
2023-04-28T16:11:03.790Z,37.54
2023-04-28T16:13:37.876Z,36.17
2023-04-28T16:16:12.135Z,34.92
2023-04-28T16:18:48.198Z,33.65
2023-04-28T16:21:17.824Z,32.54
2023-04-28T16:23:46.751Z,31.54
2023-04-28T16:26:15.209Z,30.64
2023-04-28T16:28:43.618Z,29.85
2023-04-28T16:31:12.332Z,29.13
2023-04-28T16:33:40.787Z,28.37
2023-04-28T16:36:09.118Z,27.74
2023-04-28T16:38:37.522Z,27.12
2023-04-28T16:47:43.481Z,24.98
2023-04-28T16:50:17.358Z,24.43
2023-04-28T16:52:45.929Z,24.02
2023-04-28T16:55:15.295Z,23.66
2023-04-28T16:57:43.646Z,23.37
2023-04-28T17:00:12.935Z,23.07
2023-04-28T17:02:41.613Z,22.78
2023-04-28T17:05:10.834Z,22.42
2023-04-28T17:07:39.168Z,21.91
2023-04-28T17:10:08.369Z,21.51
2023-04-28T17:12:36.801Z,21.27
2023-04-28T17:15:08.130Z,21.09
2023-04-28T17:17:37.518Z,20.93
2023-04-28T17:20:07.079Z,20.72
2023-04-28T17:22:35.570Z,20.46
2023-04-28T17:25:04.735Z,20.17
2023-04-28T17:27:33.152Z,19.87
2023-04-28T17:30:01.544Z,19.59
2023-04-28T17:32:31.069Z,19.33
2023-04-28T17:34:59.593Z,19.08
2023-04-28T17:37:28.025Z,18.88
2023-04-28T17:39:56.979Z,18.69
2023-04-28T17:42:25.349Z,18.48
2023-04-28T17:44:53.731Z,18.28
2023-04-28T17:47:22.055Z,18.11
2023-04-28T17:49:50.548Z,17.84
2023-04-28T17:52:19.025Z,17.63
2023-04-28T17:54:47.730Z,17.45
2023-04-28T17:57:16.331Z,17.25
2023-04-28T17:59:46.443Z,17.06
2023-04-28T18:02:14.853Z,16.87
2023-04-28T18:04:43.286Z,16.68
2023-04-28T18:07:11.814Z,16.49
2023-04-28T18:09:40.178Z,16.30
2023-04-28T18:12:09.581Z,16.11
2023-04-28T18:14:38.078Z,15.93
2023-04-28T18:17:07.003Z,15.75
2023-04-28T18:19:35.493Z,15.57
2023-04-28T18:22:03.877Z,15.39
2023-04-28T18:24:32.270Z,15.19
2023-04-28T18:27:01.497Z,15.00
2023-04-28T18:29:29.836Z,14.83
2023-04-28T18:31:58.231Z,14.68
2023-04-28T18:34:27.331Z,14.52
2023-04-28T18:36:55.798Z,14.35
2023-04-28T18:39:24.640Z,14.20
2023-04-28T18:41:53.370Z,14.05
2023-04-28T18:44:21.820Z,13.92
2023-04-28T18:46:51.454Z,13.80
2023-04-28T18:49:20.049Z,13.66
2023-04-28T18:51:48.428Z,13.53
2023-04-28T18:54:17.378Z,13.42
2023-04-28T18:56:46.277Z,13.32
2023-04-28T18:59:14.637Z,13.22
2023-04-28T19:01:43.017Z,13.12
2023-04-28T19:04:12.136Z,12.99
2023-04-28T19:06:40.768Z,12.88
2023-04-28T19:09:09.152Z,12.79
2023-04-28T19:11:37.556Z,12.70
2023-04-28T19:14:06.686Z,12.63
2023-04-28T19:16:35.355Z,12.57
2023-04-28T19:19:03.807Z,12.53
2023-04-28T19:21:43.228Z,12.50
2023-04-28T19:24:12.702Z,12.46
2023-04-28T19:26:41.042Z,12.41
2023-04-28T19:29:09.431Z,12.37
2023-04-28T19:31:37.790Z,12.33
2023-04-28T19:34:06.232Z,12.30
2023-04-28T19:36:35.822Z,12.26
2023-04-28T19:39:04.172Z,12.23
2023-04-28T19:41:32.578Z,12.21
2023-04-28T19:44:01.912Z,12.19
2023-04-28T19:46:30.295Z,12.17
2023-04-28T19:48:58.750Z,12.16
2023-04-28T19:51:27.964Z,12.14
2023-04-28T19:53:56.340Z,12.13
2023-04-28T19:56:24.752Z,12.12
2023-04-28T19:58:54.102Z,12.10
2023-04-28T20:01:23.129Z,12.09
2023-04-28T20:03:52.021Z,12.09
2023-04-28T20:06:20.551Z,12.08
2023-04-28T20:08:49.162Z,12.07
2023-04-28T20:11:17.632Z,12.04
2023-04-28T20:13:45.988Z,12.02
2023-04-28T20:16:14.408Z,11.99
2023-04-28T20:18:42.857Z,11.96
2023-04-28T20:21:11.457Z,11.93
2023-04-28T20:23:39.790Z,11.89
2023-04-28T20:26:16.940Z,11.85
2023-04-28T20:28:47.578Z,11.82
2023-04-28T20:31:16.220Z,11.79
2023-04-28T20:33:44.651Z,11.78
2023-04-28T20:36:13.019Z,11.74
2023-04-28T20:38:43.435Z,11.71
2023-04-28T20:41:12.245Z,11.70
2023-04-28T20:43:41.618Z,11.70
2023-04-28T20:46:10.925Z,11.71
2023-04-28T20:48:40.400Z,11.72
2023-04-28T20:51:08.811Z,11.73
2023-04-28T20:53:39.712Z,11.74
2023-04-28T20:56:08.475Z,11.75
2023-04-28T20:58:37.063Z,11.75
2023-04-28T21:01:05.509Z,11.75
2023-04-28T21:03:34.513Z,11.75
2023-04-28T21:06:03.954Z,11.75
2023-04-28T21:08:32.397Z,11.75
2023-04-28T21:11:00.756Z,11.75
2023-04-28T21:13:29.128Z,11.76
2023-04-28T21:15:57.572Z,11.77
2023-04-28T21:18:25.904Z,11.78
2023-04-28T21:20:54.737Z,11.79
2023-04-28T21:23:23.203Z,11.79
2023-04-28T21:25:52.296Z,11.79
2023-04-28T21:28:20.654Z,11.79
2023-04-28T21:30:52.939Z,11.80
2023-04-28T21:33:23.778Z,11.81
2023-04-28T21:35:52.168Z,11.83
2023-04-28T21:38:20.653Z,11.86
2023-04-28T21:40:49.150Z,11.89
2023-04-28T21:43:17.571Z,11.91
2023-04-28T21:45:45.996Z,11.93
2023-04-28T21:48:14.490Z,11.96
2023-04-28T21:50:42.854Z,11.98
2023-04-28T21:53:11.461Z,12.00
2023-04-28T21:55:40.015Z,12.01
2023-04-28T21:58:08.491Z,12.02
2023-04-28T22:00:43.610Z,12.01
2023-04-28T22:03:13.750Z,12.03
2023-04-28T22:05:43.555Z,12.04
2023-04-28T22:08:13.220Z,12.05
2023-04-28T22:10:44.018Z,12.06
2023-04-28T22:13:13.515Z,12.06
2023-04-28T22:15:42.594Z,12.07
2023-04-28T22:18:11.180Z,12.07
2023-04-28T22:20:40.309Z,12.07
2023-04-28T22:23:08.631Z,12.08
2023-04-28T22:25:37.013Z,12.09
2023-04-28T22:28:05.361Z,12.09
2023-04-28T22:30:33.710Z,12.09
2023-04-28T22:33:02.119Z,12.10
2023-04-28T22:35:30.497Z,12.10
2023-04-28T22:37:58.897Z,12.11
2023-04-28T22:40:27.802Z,12.10
2023-04-28T22:42:56.325Z,12.10
2023-04-28T22:45:24.687Z,12.10
2023-04-28T22:47:53.047Z,12.11
2023-04-28T22:50:21.762Z,12.11
2023-04-28T22:52:50.375Z,12.11
2023-04-28T22:55:19.450Z,12.12
2023-04-28T22:57:47.839Z,12.12
2023-04-28T23:00:16.623Z,12.13
2023-04-28T23:02:45.312Z,12.14
2023-04-28T23:05:14.023Z,12.14
2023-04-28T23:07:42.361Z,12.14
2023-04-28T23:10:14.287Z,12.14
2023-04-28T23:12:43.500Z,12.14
2023-04-28T23:15:11.945Z,12.14
2023-04-28T23:17:42.021Z,12.13
2023-04-28T23:20:11.167Z,12.14
2023-04-28T23:22:39.489Z,12.14
2023-04-28T23:25:08.771Z,12.14
2023-04-28T23:27:37.256Z,12.15
2023-04-28T23:30:06.455Z,12.15
2023-04-28T23:32:34.803Z,12.15
2023-04-28T23:35:03.371Z,12.14
2023-04-28T23:37:31.721Z,12.12
2023-04-28T23:39:59.993Z,12.10
2023-04-28T23:42:29.013Z,12.11
2023-04-28T23:44:58.274Z,12.12
2023-04-28T23:47:26.800Z,12.10
2023-04-28T23:49:55.224Z,12.11
2023-04-28T23:52:23.682Z,12.09
2023-04-28T23:54:51.979Z,12.08
2023-04-28T23:57:20.296Z,12.06
2023-04-28T23:59:48.885Z,12.06
